Galesburg, Iowa
Current Conditions -  °F | °C
As of 8:55 PM on Wednesday 26 Nov 2014 (Local Time) from KTNU Reporting Station
Light Snow Light Snow  
Wind Chill: 16°   Ceiling: 900
Heat Index: 27°   Visibility: 3mi
Dew Point: 27°   Wind: 12mph
Humidity: 100%   Direction: 340°NNW
Pressure: 30.28"   Gusts: NA
Location:  41.587°N, 93.0159°W
Report Text: KTNU 270255Z AUTO 34010KT 3SM -SN BKN009 BKN021 OVC050 M03/M03 A3028 RMK AO2
Loading
Personal Weather Stations






























Interactive Weather Map New forecast layout! Learn more

10-Day Weather Forecast

Advertisements
Track Severe Weather on mobile